Time;durP1;ratioP1;P1;durP2;ratioP2;P2;SDS_P1;SDS_P2;PMS_P1;PMS_P2;Temp;Humidity;BMP_temperature;BMP_pressure;BME280_temperature;BME280_humidity;BME280_pressure;Samples;Min_cycle;Max_cycle;Signal;HPM_P1;HPM_P2
2023/01/01 00:01:57;;;;;;;16.40;10.17;;;15.60;86.40;;;;;;5059376;28;20466;-72
2023/01/01 00:04:43;;;;;;;13.70;10.40;;;15.70;85.90;;;;;;5059482;28;20469;-73
2023/01/01 00:07:29;;;;;;;13.90;10.07;;;15.80;86.30;;;;;;5063623;28;20439;-74
2023/01/01 00:10:30;;;;;;;14.50;11.23;;;15.80;86.10;;;;;;5061289;28;21007;-72
2023/01/01 00:13:17;;;;;;;25.50;11.40;;;15.80;87.00;;;;;;5059426;28;20604;-73
2023/01/01 00:16:05;;;;;;;17.77;11.83;;;15.60;87.00;;;;;;5063985;28;20428;-73
2023/01/01 00:18:50;;;;;;;13.77;9.97;;;15.70;87.50;;;;;;5062134;28;21216;-74
2023/01/01 00:21:36;;;;;;;19.37;12.33;;;15.70;87.40;;;;;;5060129;28;20989;-73
2023/01/01 00:24:22;;;;;;;19.63;11.67;;;15.70;87.50;;;;;;5066684;28;20445;-72
2023/01/01 00:27:08;;;;;;;17.00;12.03;;;15.70;88.30;;;;;;5059899;28;20528;-73
2023/01/01 00:29:55;;;;;;;16.40;11.20;;;15.70;88.90;;;;;;5061508;28;20465;-73
2023/01/01 00:32:40;;;;;;;19.33;12.30;;;15.50;89.20;;;;;;5067367;28;20469;-73
2023/01/01 00:35:27;;;;;;;16.53;10.93;;;15.60;89.30;;;;;;5067733;28;20424;-73
2023/01/01 00:38:13;;;;;;;19.90;11.83;;;15.60;89.30;;;;;;5064912;28;20441;-73
2023/01/01 00:40:58;;;;;;;16.87;11.50;;;15.60;89.30;;;;;;5057600;28;20437;-73
2023/01/01 00:43:45;;;;;;;14.33;10.70;;;15.70;89.30;;;;;;5066922;28;20425;-73
2023/01/01 00:46:31;;;;;;;12.80;10.13;;;15.60;89.30;;;;;;5066075;28;20438;-72
2023/01/01 00:49:17;;;;;;;15.63;11.23;;;15.70;89.30;;;;;;5064933;28;20512;-73
2023/01/01 00:52:03;;;;;;;14.47;9.90;;;15.60;89.30;;;;;;5056791;28;20429;-73
2023/01/01 00:54:49;;;;;;;16.57;9.50;;;15.70;89.60;;;;;;5062738;28;20496;-73
2023/01/01 00:57:35;;;;;;;12.50;7.90;;;15.60;89.30;;;;;;5061509;28;20442;-73
2023/01/01 01:00:21;;;;;;;9.97;6.80;;;15.70;89.60;;;;;;5063672;28;20421;-73
2023/01/01 01:03:08;;;;;;;9.43;6.63;;;15.70;89.60;;;;;;5064642;28;20581;-74
2023/01/01 01:05:54;;;;;;;10.20;7.40;;;15.60;89.30;;;;;;5075723;28;20450;-72
2023/01/01 01:08:40;;;;;;;10.63;6.87;;;15.60;89.30;;;;;;5064787;28;20499;-72
2023/01/01 01:11:26;;;;;;;8.97;6.43;;;15.70;89.80;;;;;;5076760;22;20537;-76
2023/01/01 01:14:13;;;;;;;8.23;5.60;;;15.60;90.00;;;;;;5068907;28;20455;-76
2023/01/01 01:16:59;;;;;;;11.80;6.20;;;15.60;89.60;;;;;;5058397;28;20433;-75
2023/01/01 01:19:46;;;;;;;8.30;6.00;;;15.60;89.90;;;;;;5047906;28;20484;-77
2023/01/01 01:22:33;;;;;;;11.53;7.43;;;15.60;90.20;;;;;;5074470;28;20465;-76
2023/01/01 01:25:19;;;;;;;12.03;5.90;;;15.60;90.00;;;;;;5064345;28;20767;-75
2023/01/01 01:28:04;;;;;;;13.10;7.23;;;15.40;90.30;;;;;;5060542;28;20471;-76
2023/01/01 01:30:50;;;;;;;9.83;6.70;;;15.40;90.40;;;;;;5065986;28;20444;-76
2023/01/01 01:33:36;;;;;;;13.20;6.10;;;15.40;90.60;;;;;;5075778;28;20412;-76
2023/01/01 01:36:24;;;;;;;13.10;6.13;;;15.40;90.50;;;;;;5059529;28;21049;-76
2023/01/01 01:39:11;;;;;;;9.10;5.70;;;15.40;90.20;;;;;;5062146;28;20422;-76
2023/01/01 01:41:56;;;;;;;10.90;5.83;;;15.50;90.10;;;;;;5063051;28;20503;-76
2023/01/01 01:44:52;;;;;;;8.70;6.10;;;15.60;90.00;;;;;;5064766;28;20574;-76
2023/01/01 01:47:45;;;;;;;9.50;6.37;;;15.50;90.30;;;;;;5063381;28;20560;-76
2023/01/01 01:50:33;;;;;;;12.37;6.97;;;15.50;90.00;;;;;;5065951;28;20493;-75
2023/01/01 01:53:25;;;;;;;9.90;6.47;;;15.50;90.00;;;;;;5066062;28;20470;-76
2023/01/01 01:56:14;;;;;;;12.67;7.20;;;15.50;90.10;;;;;;5063325;28;20421;-77
2023/01/01 01:58:59;;;;;;;9.73;6.40;;;15.60;90.00;;;;;;5063846;28;20961;-75
2023/01/01 02:01:45;;;;;;;9.50;5.33;;;15.60;89.60;;;;;;5063595;28;20474;-75
2023/01/01 02:04:32;;;;;;;9.93;6.00;;;15.60;89.30;;;;;;5066166;28;20797;-76
2023/01/01 02:07:19;;;;;;;14.97;7.13;;;15.70;88.70;;;;;;5068121;28;20415;-76
2023/01/01 02:10:07;;;;;;;10.27;7.50;;;15.70;88.50;;;;;;5066503;28;21009;-75
2023/01/01 02:12:53;;;;;;;10.83;7.93;;;15.60;88.70;;;;;;5082441;28;20521;-76
2023/01/01 02:15:47;;;;;;;11.00;7.63;;;15.60;88.90;;;;;;5077543;28;20445;-76
2023/01/01 02:18:40;;;;;;;13.30;7.97;;;15.60;88.60;;;;;;5084518;28;20501;-76
2023/01/01 02:21:31;;;;;;;24.90;8.70;;;15.60;89.30;;;;;;5087512;28;21066;-75
2023/01/01 02:24:42;;;;;;;10.00;7.50;;;15.70;89.30;;;;;;5087034;28;20523;-75
2023/01/01 02:27:36;;;;;;;13.33;6.90;;;15.70;88.10;;;;;;5085927;28;20967;-76
2023/01/01 02:30:23;;;;;;;10.57;7.03;;;15.70;87.90;;;;;;5088551;28;20444;-76
2023/01/01 02:33:15;;;;;;;12.77;7.83;;;15.70;88.20;;;;;;5085121;28;20505;-76
2023/01/01 02:36:04;;;;;;;13.50;7.57;;;15.80;88.20;;;;;;5089943;28;21014;-76
2023/01/01 02:38:53;;;;;;;18.73;8.57;;;15.70;88.40;;;;;;5083694;28;20480;-76
2023/01/01 02:41:41;;;;;;;10.50;7.03;;;15.70;88.40;;;;;;5092128;28;20436;-76
2023/01/01 02:44:30;;;;;;;10.90;7.87;;;15.60;88.20;;;;;;5076102;28;20458;-76
2023/01/01 02:47:19;;;;;;;11.50;6.90;;;15.60;87.90;;;;;;5088053;28;20503;-75
2023/01/01 02:50:12;;;;;;;10.57;6.27;;;15.70;88.10;;;;;;5081671;28;20458;-76
2023/01/01 02:53:13;;;;;;;8.77;5.30;;;15.70;87.50;;;;;;5088062;28;20427;-76
2023/01/01 02:56:05;;;;;;;6.90;5.30;;;15.80;87.00;;;;;;5078702;28;20524;-75
2023/01/01 03:02:14;;;;;;;7.67;4.70;;;15.80;87.20;;;;;;5076765;28;20462;-76
2023/01/01 03:05:08;;;;;;;10.17;5.77;;;15.80;87.20;;;;;;5085015;28;20445;-76
2023/01/01 03:08:04;;;;;;;7.63;5.73;;;15.80;87.20;;;;;;5085576;28;20909;-76
2023/01/01 03:10:54;;;;;;;7.57;5.67;;;15.80;87.80;;;;;;5087341;28;20448;-76
2023/01/01 03:13:45;;;;;;;7.80;5.07;;;15.70;87.80;;;;;;5077566;28;20929;-76
2023/01/01 03:16:37;;;;;;;8.40;5.40;;;15.60;87.70;;;;;;5091533;28;20784;-75
2023/01/01 03:19:25;;;;;;;8.03;5.07;;;15.70;87.70;;;;;;5089800;28;20408;-76
2023/01/01 03:22:15;;;;;;;10.27;6.10;;;15.60;87.80;;;;;;5073561;28;20462;-76
2023/01/01 03:25:04;;;;;;;9.43;6.30;;;15.60;88.10;;;;;;5091372;28;20778;-76
2023/01/01 03:27:52;;;;;;;9.63;6.40;;;15.60;88.70;;;;;;5081638;28;20416;-76
2023/01/01 03:30:40;;;;;;;8.00;5.10;;;15.60;88.70;;;;;;5086442;28;20545;-76
2023/01/01 03:33:32;;;;;;;5.80;4.90;;;15.50;88.80;;;;;;5082543;28;20519;-75
2023/01/01 03:36:21;;;;;;;8.50;4.73;;;15.50;88.50;;;;;;5083301;28;20421;-76
2023/01/01 03:39:13;;;;;;;8.13;4.77;;;15.50;88.50;;;;;;5080059;28;20454;-77
2023/01/01 03:42:09;;;;;;;6.30;4.50;;;15.60;88.10;;;;;;5081002;28;20498;-76
2023/01/01 03:45:00;;;;;;;6.73;4.40;;;15.60;87.90;;;;;;5088178;28;21044;-76
2023/01/01 03:47:46;;;;;;;8.07;4.40;;;15.50;88.10;;;;;;5080783;28;20447;-75
2023/01/01 03:50:42;;;;;;;13.70;5.47;;;15.50;88.20;;;;;;5087859;28;20440;-76
2023/01/01 03:53:38;;;;;;;6.23;4.13;;;15.50;88.00;;;;;;5088124;28;20470;-76
2023/01/01 03:56:35;;;;;;;8.83;4.60;;;15.50;88.30;;;;;;5080292;28;20592;-76
2023/01/01 03:59:25;;;;;;;7.23;4.07;;;15.50;88.40;;;;;;5087354;28;20444;-76
2023/01/01 04:02:14;;;;;;;10.03;5.37;;;15.50;88.20;;;;;;5091891;28;20429;-76
2023/01/01 04:05:01;;;;;;;7.87;4.57;;;15.40;88.60;;;;;;5083653;28;20513;-76
2023/01/01 04:07:48;;;;;;;5.90;4.10;;;15.40;87.90;;;;;;5086069;28;20463;-76
2023/01/01 04:10:38;;;;;;;7.03;4.07;;;15.50;88.00;;;;;;5084302;28;20953;-76
2023/01/01 04:13:24;;;;;;;8.83;4.30;;;15.40;87.60;;;;;;5087860;28;20827;-76
2023/01/01 04:16:10;;;;;;;8.53;3.57;;;15.30;87.90;;;;;;5080825;28;20464;-76
2023/01/01 04:18:55;;;;;;;5.70;4.07;;;15.40;87.50;;;;;;5085903;28;20441;-76
2023/01/01 04:21:41;;;;;;;7.57;3.97;;;15.40;86.80;;;;;;5085815;28;21075;-75
2023/01/01 04:24:27;;;;;;;9.67;4.80;;;15.40;85.60;;;;;;5085846;28;20447;-75
2023/01/01 04:27:13;;;;;;;6.40;4.33;;;15.40;86.10;;;;;;5078208;28;20558;-76
2023/01/01 04:30:00;;;;;;;5.00;3.50;;;15.40;85.50;;;;;;5082075;28;20588;-76
2023/01/01 04:32:45;;;;;;;7.00;3.87;;;15.30;85.90;;;;;;5084998;28;20452;-75
2023/01/01 04:35:31;;;;;;;6.70;3.53;;;15.30;85.60;;;;;;5077458;28;20421;-75
2023/01/01 04:38:17;;;;;;;6.43;4.00;;;15.30;85.80;;;;;;5088508;28;20853;-75
2023/01/01 04:41:03;;;;;;;6.70;3.47;;;15.30;86.20;;;;;;5085932;28;20463;-75
2023/01/01 04:43:50;;;;;;;18.03;5.10;;;15.30;84.20;;;;;;5089916;28;20783;-75
2023/01/01 04:46:37;;;;;;;5.13;3.67;;;15.20;84.50;;;;;;5070918;28;20415;-76
2023/01/01 04:49:23;;;;;;;7.90;3.90;;;15.30;83.00;;;;;;5082046;28;20839;-76
2023/01/01 04:52:09;;;;;;;5.00;3.47;;;15.40;82.00;;;;;;5090191;28;20848;-75
2023/01/01 04:54:54;;;;;;;7.30;4.00;;;15.40;81.30;;;;;;5081437;28;20792;-75
2023/01/01 04:57:41;;;;;;;9.67;3.60;;;15.40;81.80;;;;;;5082892;28;20947;-75
2023/01/01 05:00:27;;;;;;;6.73;3.97;;;15.40;80.30;;;;;;5081308;28;20578;-76
2023/01/01 05:03:13;;;;;;;13.30;4.27;;;15.50;81.40;;;;;;5085221;28;20447;-76
2023/01/01 05:06:04;;;;;;;7.60;3.40;;;15.40;80.70;;;;;;5085684;28;20460;-76
2023/01/01 05:08:51;;;;;;;5.60;3.40;;;15.50;80.60;;;;;;5087730;28;20448;-76
2023/01/01 05:11:36;;;;;;;6.67;2.83;;;15.50;79.50;;;;;;5075831;28;20484;-75
2023/01/01 05:14:22;;;;;;;5.10;3.50;;;15.50;79.30;;;;;;5095310;28;20883;-76
2023/01/01 05:17:08;;;;;;;7.30;3.43;;;15.40;80.20;;;;;;5076921;28;21789;-75
2023/01/01 05:19:55;;;;;;;6.27;3.80;;;15.40;80.20;;;;;;5078682;28;20469;-75
2023/01/01 05:22:40;;;;;;;6.23;2.90;;;15.40;79.50;;;;;;5077777;28;20567;-75
2023/01/01 05:25:26;;;;;;;7.03;3.83;;;15.40;79.60;;;;;;5075650;28;20952;-75
2023/01/01 05:28:12;;;;;;;6.87;3.40;;;15.40;80.20;;;;;;5081665;28;20412;-76
2023/01/01 05:30:58;;;;;;;7.70;3.43;;;15.40;80.20;;;;;;5081902;28;20574;-76
2023/01/01 05:33:44;;;;;;;8.23;3.50;;;15.30;80.30;;;;;;5080382;28;20445;-76
2023/01/01 05:36:34;;;;;;;7.23;3.33;;;15.30;81.10;;;;;;5080206;28;20421;-76
2023/01/01 05:39:19;;;;;;;5.60;2.83;;;15.20;81.10;;;;;;5077897;28;20440;-76
2023/01/01 05:42:05;;;;;;;5.80;3.90;;;15.10;82.10;;;;;;5086810;28;20453;-75
2023/01/01 05:44:51;;;;;;;4.13;3.20;;;15.20;81.80;;;;;;5087112;28;20460;-75
2023/01/01 05:47:36;;;;;;;5.70;3.77;;;15.10;81.90;;;;;;5091964;28;20425;-76
2023/01/01 05:50:22;;;;;;;8.30;3.47;;;15.00;81.90;;;;;;5089259;28;20443;-75
2023/01/01 05:53:09;;;;;;;6.90;3.63;;;15.00;82.90;;;;;;5088964;28;20472;-75
2023/01/01 05:55:54;;;;;;;4.60;3.00;;;15.00;82.90;;;;;;5077028;28;20500;-76
2023/01/01 05:58:41;;;;;;;7.60;3.63;;;15.00;82.70;;;;;;5081162;28;20614;-75
2023/01/01 06:01:29;;;;;;;8.77;3.93;;;15.00;83.90;;;;;;5085750;28;20960;-76
2023/01/01 06:04:14;;;;;;;5.73;3.37;;;14.90;83.70;;;;;;5086547;28;20433;-75
2023/01/01 06:07:00;;;;;;;8.60;4.27;;;14.90;83.60;;;;;;5072181;28;20439;-76
2023/01/01 06:09:47;;;;;;;7.03;3.80;;;14.90;84.00;;;;;;5086125;28;20491;-75
2023/01/01 06:12:33;;;;;;;6.70;4.10;;;14.90;82.80;;;;;;5083565;28;20473;-76
2023/01/01 06:15:19;;;;;;;7.40;3.60;;;14.90;83.40;;;;;;5073576;28;20453;-76
2023/01/01 06:18:07;;;;;;;6.67;3.30;;;14.90;82.90;;;;;;5080541;28;20558;-76
2023/01/01 06:20:54;;;;;;;5.10;3.20;;;14.90;83.70;;;;;;5086696;28;20473;-75
2023/01/01 06:23:41;;;;;;;7.80;4.40;;;14.80;84.00;;;;;;5082832;28;20420;-75
2023/01/01 06:26:29;;;;;;;6.20;3.07;;;14.80;84.20;;;;;;5073939;28;20436;-75
2023/01/01 06:29:15;;;;;;;9.70;3.33;;;14.80;83.80;;;;;;5083536;28;21029;-75
2023/01/01 06:32:01;;;;;;;7.37;4.67;;;14.80;84.20;;;;;;5083982;28;21020;-75
2023/01/01 06:34:47;;;;;;;7.40;3.40;;;14.80;84.80;;;;;;5079986;28;20416;-75
2023/01/01 06:37:32;;;;;;;11.07;3.37;;;14.80;84.20;;;;;;5086432;28;20974;-76
2023/01/01 06:40:18;;;;;;;5.00;2.63;;;14.70;84.00;;;;;;5082430;28;20429;-76
2023/01/01 06:43:05;;;;;;;9.37;3.20;;;14.70;84.10;;;;;;5083377;28;20476;-76
2023/01/01 06:46:02;;;;;;;6.20;3.60;;;14.70;84.10;;;;;;5088737;28;21064;-76
2023/01/01 06:48:49;;;;;;;7.40;3.77;;;14.70;84.10;;;;;;5085761;28;20938;-76
2023/01/01 06:51:38;;;;;;;6.07;3.83;;;14.80;84.20;;;;;;5083820;28;20988;-76
2023/01/01 06:54:23;;;;;;;6.43;3.23;;;14.70;84.70;;;;;;5073341;28;20462;-76
2023/01/01 06:57:09;;;;;;;8.63;3.47;;;14.60;85.00;;;;;;5084841;28;20790;-75
2023/01/01 06:59:56;;;;;;;5.80;3.40;;;14.60;86.00;;;;;;5084163;28;20532;-75
2023/01/01 07:02:41;;;;;;;8.47;4.20;;;14.50;86.90;;;;;;5086307;28;20457;-76
2023/01/01 07:05:27;;;;;;;6.47;3.43;;;14.40;88.30;;;;;;5085573;28;20419;-75
2023/01/01 07:08:15;;;;;;;7.07;3.50;;;14.30;88.70;;;;;;5081971;28;20445;-75
2023/01/01 07:11:01;;;;;;;6.43;3.97;;;14.10;90.40;;;;;;5087004;28;20514;-75
2023/01/01 07:13:47;;;;;;;7.27;3.50;;;13.70;92.00;;;;;;5095487;22;20463;-72
2023/01/01 07:16:34;;;;;;;6.30;4.03;;;13.50;93.30;;;;;;5085080;28;20438;-73
2023/01/01 07:19:19;;;;;;;5.17;3.50;;;13.50;93.70;;;;;;5083798;28;20425;-73
2023/01/01 07:22:05;;;;;;;5.73;3.60;;;13.40;94.20;;;;;;5081347;28;20486;-73
2023/01/01 07:24:50;;;;;;;5.60;3.50;;;13.40;94.60;;;;;;5064218;28;20455;-73
2023/01/01 07:27:36;;;;;;;7.93;3.30;;;13.40;95.00;;;;;;5066358;28;20571;-72
2023/01/01 07:30:22;;;;;;;6.90;3.27;;;13.40;94.10;;;;;;5063745;28;20509;-74
2023/01/01 07:33:13;;;;;;;7.50;3.03;;;13.50;94.30;;;;;;5072197;28;20535;-72
2023/01/01 07:35:59;;;;;;;5.67;3.53;;;13.40;95.00;;;;;;5064312;28;20413;-73
2023/01/01 07:38:44;;;;;;;11.33;3.30;;;13.40;95.40;;;;;;5064770;28;20518;-73
2023/01/01 07:41:30;;;;;;;6.10;3.50;;;13.30;95.40;;;;;;5067128;28;20427;-73
2023/01/01 07:44:16;;;;;;;6.97;3.27;;;13.30;96.50;;;;;;5067941;28;21006;-73
2023/01/01 07:47:02;;;;;;;8.00;3.30;;;13.20;97.10;;;;;;5063727;28;20439;-73
2023/01/01 07:49:50;;;;;;;10.33;3.37;;;13.20;96.90;;;;;;5071143;28;20501;-73
2023/01/01 07:52:35;;;;;;;8.73;2.90;;;13.10;97.50;;;;;;5062931;28;20464;-72
2023/01/01 07:55:21;;;;;;;8.00;3.20;;;13.10;98.10;;;;;;5061014;28;20428;-73
2023/01/01 07:58:07;;;;;;;5.13;3.43;;;13.10;98.20;;;;;;5071494;28;20475;-73
2023/01/01 08:00:53;;;;;;;10.83;2.70;;;13.10;98.30;;;;;;5064935;28;20456;-72
2023/01/01 08:03:38;;;;;;;6.80;2.80;;;13.10;97.70;;;;;;5059104;28;20474;-73
2023/01/01 08:06:26;;;;;;;6.47;2.73;;;13.40;96.00;;;;;;5068794;28;20446;-73
2023/01/01 08:09:12;;;;;;;4.37;2.50;;;13.60;95.10;;;;;;5072688;28;20445;-73
2023/01/01 08:11:58;;;;;;;7.47;2.90;;;13.80;94.60;;;;;;5078810;28;20474;-73
2023/01/01 08:14:43;;;;;;;9.00;3.70;;;13.90;93.40;;;;;;5069846;28;20417;-73
2023/01/01 08:17:29;;;;;;;5.90;2.90;;;13.90;93.70;;;;;;5071943;28;20437;-74
2023/01/01 08:20:15;;;;;;;8.10;2.93;;;14.00;93.00;;;;;;5071171;28;20476;-73
2023/01/01 08:23:02;;;;;;;18.17;5.60;;;14.10;93.20;;;;;;5060961;28;20978;-73
2023/01/01 08:25:47;;;;;;;4.50;2.83;;;14.20;92.10;;;;;;5055421;28;20433;-73
2023/01/01 08:28:33;;;;;;;6.13;2.20;;;14.30;91.10;;;;;;5061230;28;20466;-73
2023/01/01 08:31:19;;;;;;;10.10;3.03;;;14.40;90.50;;;;;;5070158;28;20481;-73
2023/01/01 08:34:04;;;;;;;9.07;2.93;;;14.50;90.30;;;;;;5062103;28;20454;-72
2023/01/01 08:36:51;;;;;;;8.27;3.17;;;14.50;90.10;;;;;;5073889;28;20421;-73
2023/01/01 08:39:38;;;;;;;4.73;3.10;;;14.50;88.50;;;;;;5074795;28;20450;-72
2023/01/01 08:42:23;;;;;;;4.83;2.33;;;14.60;89.00;;;;;;5059990;28;20464;-73
2023/01/01 08:45:10;;;;;;;5.20;2.60;;;14.70;87.50;;;;;;5062082;28;20417;-73
2023/01/01 08:47:55;;;;;;;6.67;2.97;;;14.80;87.80;;;;;;5072374;28;20424;-73
2023/01/01 08:50:41;;;;;;;5.50;2.57;;;14.80;88.10;;;;;;5064369;28;20463;-74
2023/01/01 08:53:26;;;;;;;8.20;3.20;;;14.70;86.80;;;;;;5059873;28;20953;-73
2023/01/01 08:56:15;;;;;;;12.20;2.57;;;14.70;86.70;;;;;;5065397;28;20425;-74
2023/01/01 08:59:01;;;;;;;7.90;3.23;;;14.80;86.40;;;;;;5067444;28;20445;-73
2023/01/01 09:01:47;;;;;;;8.17;3.43;;;14.90;85.10;;;;;;5063698;28;20889;-73
2023/01/01 09:04:32;;;;;;;5.00;2.97;;;14.90;85.30;;;;;;5066690;28;20819;-74
2023/01/01 09:07:18;;;;;;;6.00;2.60;;;14.90;84.30;;;;;;5068454;28;20437;-74
2023/01/01 09:10:04;;;;;;;6.10;2.70;;;15.00;84.80;;;;;;5070416;28;20413;-72
2023/01/01 09:12:51;;;;;;;5.13;2.40;;;15.00;84.10;;;;;;5067508;28;20456;-73
2023/01/01 09:15:37;;;;;;;6.23;2.53;;;15.00;83.80;;;;;;5060784;28;20417;-73
2023/01/01 09:18:22;;;;;;;9.70;3.17;;;15.10;83.10;;;;;;5065057;28;20450;-74
2023/01/01 09:21:08;;;;;;;8.00;3.00;;;15.10;82.50;;;;;;5063549;28;20936;-74
2023/01/01 09:23:54;;;;;;;7.67;2.80;;;15.10;83.20;;;;;;5056960;28;20512;-73
2023/01/01 09:26:40;;;;;;;5.80;2.90;;;15.10;82.60;;;;;;5065467;28;20543;-73
2023/01/01 09:29:26;;;;;;;10.57;2.80;;;15.20;82.50;;;;;;5070187;28;20416;-71
2023/01/01 09:32:12;;;;;;;6.53;3.77;;;15.20;83.50;;;;;;5063322;28;21032;-73
2023/01/01 09:34:59;;;;;;;8.80;3.97;;;15.20;82.90;;;;;;5066529;28;20576;-73
2023/01/01 09:37:45;;;;;;;10.67;3.70;;;15.20;81.80;;;;;;5065833;28;20521;-74
2023/01/01 09:40:36;;;;;;;10.60;3.20;;;15.20;81.30;;;;;;5066693;28;20458;-73
2023/01/01 09:43:33;;;;;;;14.53;3.10;;;15.20;81.30;;;;;;5060932;28;20437;-73
2023/01/01 09:46:24;;;;;;;6.87;3.10;;;15.20;81.30;;;;;;5069856;28;20947;-74
2023/01/01 09:49:16;;;;;;;10.83;3.07;;;15.30;80.10;;;;;;5063449;28;20603;-73
2023/01/01 09:52:04;;;;;;;6.13;2.13;;;15.30;80.30;;;;;;5067865;28;20487;-74
2023/01/01 09:54:55;;;;;;;8.13;3.20;;;15.30;80.90;;;;;;5071571;28;20442;-73
2023/01/01 09:57:41;;;;;;;6.47;2.43;;;15.40;80.20;;;;;;5067356;28;21048;-74
2023/01/01 10:00:30;;;;;;;6.03;3.20;;;15.40;80.20;;;;;;5065032;28;20536;-73
2023/01/01 10:03:29;;;;;;;6.67;2.90;;;15.40;79.60;;;;;;5071467;28;20476;-74
2023/01/01 10:06:23;;;;;;;7.60;3.07;;;15.50;80.30;;;;;;5069040;28;20433;-74
2023/01/01 10:09:19;;;;;;;5.87;2.60;;;15.50;79.70;;;;;;5063046;28;21034;-74
2023/01/01 10:12:11;;;;;;;14.70;3.07;;;15.50;79.20;;;;;;5063708;28;21027;-73
2023/01/01 10:15:06;;;;;;;8.70;2.80;;;15.50;80.10;;;;;;5068093;28;20454;-73
2023/01/01 10:17:57;;;;;;;7.60;3.00;;;15.60;79.50;;;;;;5074297;28;20556;-73
2023/01/01 10:20:48;;;;;;;6.77;2.53;;;15.60;78.20;;;;;;5065398;28;20928;-72
2023/01/01 10:23:40;;;;;;;6.47;3.30;;;15.60;78.10;;;;;;5069705;28;20454;-73
2023/01/01 10:26:28;;;;;;;12.93;3.03;;;15.70;77.40;;;;;;5067371;28;20445;-74
2023/01/01 10:29:21;;;;;;;7.20;2.60;;;15.70;76.20;;;;;;5073195;28;20420;-75
2023/01/01 10:32:18;;;;;;;8.40;2.80;;;15.80;76.00;;;;;;5066186;28;20468;-75
2023/01/01 10:35:13;;;;;;;9.77;3.90;;;15.80;76.20;;;;;;5068658;28;20409;-75
2023/01/01 10:38:02;;;;;;;6.50;3.10;;;15.80;76.00;;;;;;5070507;28;20438;-75
2023/01/01 10:40:48;;;;;;;7.93;2.33;;;15.80;76.00;;;;;;5065798;28;20425;-73
2023/01/01 10:43:33;;;;;;;9.17;3.20;;;15.80;75.50;;;;;;5064275;28;20438;-75
2023/01/01 10:46:23;;;;;;;7.80;2.70;;;15.90;75.10;;;;;;5065634;28;20539;-73
2023/01/01 10:49:10;;;;;;;11.73;2.73;;;15.90;74.70;;;;;;5065754;28;20417;-72
2023/01/01 10:51:58;;;;;;;7.40;2.40;;;16.00;73.60;;;;;;5063209;28;21620;-72
2023/01/01 10:54:45;;;;;;;5.50;3.47;;;16.00;75.10;;;;;;5077530;28;20565;-73
2023/01/01 10:57:33;;;;;;;9.33;3.07;;;16.10;72.80;;;;;;5077235;28;20462;-72
2023/01/01 11:00:24;;;;;;;4.43;2.93;;;16.10;73.30;;;;;;5065061;28;20481;-74
2023/01/01 11:03:19;;;;;;;8.33;2.70;;;16.20;72.10;;;;;;5064359;28;20438;-75
2023/01/01 11:06:18;;;;;;;5.90;2.53;;;16.20;72.70;;;;;;5064636;28;20801;-73
2023/01/01 11:09:18;;;;;;;7.10;3.07;;;16.30;72.50;;;;;;5064366;28;20459;-76
2023/01/01 11:12:07;;;;;;;9.10;2.80;;;16.40;71.30;;;;;;5059559;28;20490;-74
2023/01/01 11:14:54;;;;;;;7.70;3.37;;;16.50;71.10;;;;;;5070391;28;20547;-73
2023/01/01 11:17:40;;;;;;;7.03;2.57;;;16.40;69.90;;;;;;5071049;28;20447;-73
2023/01/01 11:20:26;;;;;;;8.30;2.97;;;16.30;70.30;;;;;;5069670;28;20421;-73
2023/01/01 11:23:19;;;;;;;8.57;3.03;;;16.30;69.70;;;;;;5066009;28;20462;-73
2023/01/01 11:26:19;;;;;;;5.03;2.40;;;16.30;69.90;;;;;;5065874;28;20513;-72
2023/01/01 11:29:25;;;;;;;10.97;2.90;;;16.20;70.20;;;;;;5061648;28;20470;-73
2023/01/01 11:32:19;;;;;;;9.33;2.97;;;16.10;70.40;;;;;;5067860;28;20827;-72
2023/01/01 11:35:11;;;;;;;6.53;2.33;;;16.10;71.40;;;;;;5064003;28;20422;-72
2023/01/01 11:37:58;;;;;;;7.70;3.57;;;16.10;71.40;;;;;;5069914;28;20832;-72
2023/01/01 11:40:47;;;;;;;10.00;3.90;;;16.00;72.40;;;;;;5062102;28;20459;-72
2023/01/01 11:43:39;;;;;;;6.67;3.30;;;16.00;72.20;;;;;;5059338;28;20929;-72
2023/01/01 11:46:33;;;;;;;5.30;2.40;;;15.90;73.10;;;;;;5076930;28;20420;-72
2023/01/01 11:49:24;;;;;;;9.00;3.50;;;15.90;71.40;;;;;;5067268;28;20840;-72
2023/01/01 11:52:35;;;;;;;10.10;3.10;;;15.90;73.20;;;;;;5061314;28;20438;-72
2023/01/01 11:55:37;;;;;;;13.83;3.77;;;15.90;73.20;;;;;;5064361;28;20438;-72
2023/01/01 11:58:27;;;;;;;10.30;3.90;;;15.90;72.90;;;;;;5063100;28;20425;-72
2023/01/01 12:01:17;;;;;;;11.60;5.40;;;15.90;74.20;;;;;;5060806;28;20501;-72
2023/01/01 12:04:09;;;;;;;7.93;3.77;;;15.90;73.30;;;;;;5065484;28;20541;-73
2023/01/01 12:06:59;;;;;;;16.47;5.80;;;15.90;74.50;;;;;;5058606;28;20469;-72
2023/01/01 12:09:53;;;;;;;11.80;4.20;;;15.90;73.80;;;;;;5066617;28;20449;-72
2023/01/01 12:12:43;;;;;;;8.90;3.70;;;15.90;71.50;;;;;;5065176;28;20902;-73
2023/01/01 12:15:37;;;;;;;7.60;4.47;;;16.00;72.30;;;;;;5066778;28;20420;-73
2023/01/01 12:18:27;;;;;;;8.40;2.80;;;15.90;71.30;;;;;;5063037;28;20540;-73
2023/01/01 12:21:22;;;;;;;17.70;7.43;;;15.90;71.30;;;;;;5063950;28;20454;-73
2023/01/01 12:24:11;;;;;;;9.13;3.80;;;15.90;72.90;;;;;;5069364;28;20453;-73
2023/01/01 12:27:14;;;;;;;7.97;3.93;;;16.00;71.80;;;;;;5074690;28;20814;-73
2023/01/01 12:30:10;;;;;;;15.87;7.57;;;16.00;71.30;;;;;;5052134;28;20521;-72
2023/01/01 12:33:13;;;;;;;10.80;3.10;;;16.00;71.40;;;;;;5062286;28;20449;-72
2023/01/01 12:36:10;;;;;;;8.33;3.20;;;16.00;70.90;;;;;;5067760;28;20800;-73
2023/01/01 12:39:35;;;;;;;7.03;2.90;;;16.00;71.90;;;;;;5066823;28;20487;-72
2023/01/01 12:42:31;;;;;;;8.60;2.83;;;16.00;71.30;;;;;;5056623;28;20444;-73
2023/01/01 12:45:59;;;;;;;8.73;3.20;;;15.90;71.30;;;;;;5063524;28;20798;-73
2023/01/01 12:49:08;;;;;;;13.00;2.80;;;15.90;71.30;;;;;;5017098;28;20893;-73
2023/01/01 12:52:05;;;;;;;7.50;2.67;;;15.90;70.90;;;;;;5059443;28;20458;-73
2023/01/01 12:55:32;;;;;;;9.03;3.60;;;15.90;71.30;;;;;;5062659;28;20417;-73
2023/01/01 12:58:26;;;;;;;9.27;3.03;;;15.80;72.30;;;;;;5066026;28;20430;-72
2023/01/01 13:01:14;;;;;;;13.87;3.03;;;15.80;71.20;;;;;;5062320;28;20585;-73
2023/01/01 13:04:02;;;;;;;5.33;2.60;;;15.90;72.10;;;;;;5063271;28;20441;-73
2023/01/01 13:06:50;;;;;;;12.20;2.90;;;15.90;72.20;;;;;;5065207;28;20443;-72
2023/01/01 13:09:39;;;;;;;9.23;2.73;;;15.90;72.90;;;;;;5069721;28;20449;-73
2023/01/01 13:12:26;;;;;;;9.80;3.67;;;15.90;72.90;;;;;;5082841;22;20494;-73
2023/01/01 13:15:48;;;;;;;8.83;2.83;;;15.90;72.30;;;;;;5087439;28;20485;-73
2023/01/01 13:18:35;;;;;;;16.33;2.73;;;15.90;72.50;;;;;;5079957;28;20962;-73
2023/01/01 13:21:24;;;;;;;9.97;2.73;;;15.90;71.30;;;;;;5086268;28;20458;-74
2023/01/01 13:24:20;;;;;;;10.33;2.93;;;15.90;71.50;;;;;;5091307;28;21067;-74
2023/01/01 13:27:10;;;;;;;16.10;3.43;;;15.90;71.30;;;;;;5083053;28;20619;-74
2023/01/01 13:29:56;;;;;;;7.27;2.90;;;15.90;71.60;;;;;;5074383;28;20466;-73
2023/01/01 13:33:22;;;;;;;7.67;2.80;;;15.90;71.30;;;;;;5074320;28;20453;-72
2023/01/01 13:36:30;;;;;;;11.23;3.50;;;15.90;71.90;;;;;;5069176;28;20500;-73
2023/01/01 13:39:54;;;;;;;18.87;3.20;;;15.90;72.60;;;;;;5077518;28;20495;-72
2023/01/01 13:42:51;;;;;;;14.03;3.20;;;15.90;73.00;;;;;;5082863;28;20501;-73
2023/01/01 13:45:42;;;;;;;23.70;3.53;;;15.90;71.30;;;;;;5079753;28;21022;-73
2023/01/01 13:49:05;;;;;;;13.40;2.73;;;15.90;71.30;;;;;;5078207;28;20557;-71
2023/01/01 13:52:23;;;;;;;6.90;3.07;;;16.00;70.70;;;;;;5080065;28;20441;-70
2023/01/01 13:55:38;;;;;;;8.97;4.60;;;16.00;72.00;;;;;;5071962;28;20526;-73
2023/01/01 13:59:15;;;;;;;10.73;3.60;;;15.90;71.60;;;;;;5099656;28;20425;-74
2023/01/01 14:02:12;;;;;;;14.73;2.90;;;15.90;71.30;;;;;;5080553;28;20404;-73
2023/01/01 14:05:01;;;;;;;16.13;3.23;;;15.90;71.20;;;;;;5092032;28;20425;-74
2023/01/01 14:07:50;;;;;;;8.40;3.43;;;15.90;72.00;;;;;;5100259;28;20453;-72
2023/01/01 14:10:36;;;;;;;7.97;2.83;;;16.00;71.30;;;;;;5077795;28;20498;-74
2023/01/01 14:13:26;;;;;;;8.83;3.53;;;16.00;72.90;;;;;;5093997;28;20447;-74
2023/01/01 14:16:14;;;;;;;8.53;2.80;;;15.90;73.50;;;;;;5093567;28;20408;-74
2023/01/01 14:19:02;;;;;;;7.87;3.03;;;15.90;75.40;;;;;;5100038;28;20449;-74
2023/01/01 14:21:49;;;;;;;10.73;3.10;;;15.80;73.70;;;;;;5077037;28;20453;-73
2023/01/01 14:24:40;;;;;;;9.03;3.27;;;15.80;73.90;;;;;;5083334;28;20449;-74
2023/01/01 14:27:29;;;;;;;5.90;2.40;;;15.70;79.30;;;;;;5080067;28;20433;-75
2023/01/01 14:30:18;;;;;;;4.87;3.03;;;15.70;79.70;;;;;;5082265;28;20416;-75
2023/01/01 14:33:04;;;;;;;9.23;2.53;;;15.60;81.60;;;;;;5078054;28;20461;-75
2023/01/01 14:35:53;;;;;;;7.50;3.03;;;15.50;85.90;;;;;;5088087;28;21112;-74
2023/01/01 14:38:44;;;;;;;8.47;3.23;;;15.40;90.00;;;;;;5081021;28;20489;-75
2023/01/01 14:41:32;;;;;;;8.87;3.73;;;15.30;90.20;;;;;;5073783;28;21029;-75
2023/01/01 14:44:22;;;;;;;5.13;2.40;;;15.30;90.60;;;;;;5077305;28;20547;-75